createdAt,value
2022-12-12T00:02:00.039Z,3.70
2022-12-12T00:06:04.877Z,3.60
2022-12-12T00:10:08.340Z,3.70
2022-12-12T00:14:10.040Z,3.30
2022-12-12T00:18:11.747Z,3.10
2022-12-12T00:22:13.511Z,3.30
2022-12-12T00:26:29.218Z,3.20
2022-12-12T00:30:30.890Z,3.30
2022-12-12T00:34:32.539Z,3.50
2022-12-12T00:38:34.588Z,3.10
2022-12-12T00:42:36.397Z,3.40
2022-12-12T00:46:38.419Z,3.00
2022-12-12T00:50:40.172Z,3.10
2022-12-12T00:54:41.843Z,3.30
2022-12-12T00:58:43.612Z,2.70
2022-12-12T01:02:45.492Z,2.70
2022-12-12T01:06:47.289Z,3.00
2022-12-12T01:10:48.936Z,2.90
2022-12-12T01:14:50.687Z,2.50
2022-12-12T01:18:52.702Z,2.60
2022-12-12T01:22:54.938Z,2.50
2022-12-12T01:26:56.597Z,2.80
2022-12-12T01:30:58.301Z,2.80
2022-12-12T01:35:00.146Z,2.80
2022-12-12T01:39:02.948Z,3.10
2022-12-12T01:43:11.368Z,3.20
2022-12-12T01:47:14.924Z,3.20
2022-12-12T01:51:19.591Z,3.20
2022-12-12T01:55:22.985Z,3.30
2022-12-12T01:59:26.912Z,3.30
2022-12-12T02:03:28.631Z,3.20
2022-12-12T02:07:30.331Z,3.30
2022-12-12T02:11:33.012Z,3.20
2022-12-12T02:16:06.584Z,3.00
2022-12-12T02:20:38.858Z,2.70
2022-12-12T02:24:48.355Z,2.70
2022-12-12T02:28:59.690Z,3.00
2022-12-12T02:33:27.619Z,2.80
2022-12-12T02:37:58.637Z,2.90
2022-12-12T02:42:05.680Z,2.70
2022-12-12T02:46:24.249Z,2.70
2022-12-12T02:50:29.551Z,2.80
2022-12-12T02:54:31.482Z,2.70
2022-12-12T02:58:36.203Z,2.80
2022-12-12T03:02:46.592Z,2.90
2022-12-12T03:07:26.234Z,2.90
2022-12-12T03:11:48.910Z,2.90
2022-12-12T03:16:11.749Z,2.70
2022-12-12T03:20:22.950Z,2.80
2022-12-12T03:24:39.609Z,2.20
2022-12-12T03:28:55.157Z,2.20
2022-12-12T03:33:05.752Z,2.40
2022-12-12T03:37:10.466Z,2.60
2022-12-12T03:41:19.012Z,2.50
2022-12-12T03:45:32.412Z,2.40
2022-12-12T03:49:39.659Z,2.50
2022-12-12T03:53:56.250Z,1.80
2022-12-12T03:58:09.490Z,1.90
2022-12-12T04:02:26.796Z,1.90
2022-12-12T04:06:39.452Z,2.40
2022-12-12T04:11:14.516Z,2.60
2022-12-12T04:15:30.693Z,2.60
2022-12-12T04:20:08.698Z,2.50
2022-12-12T04:24:16.361Z,2.70
2022-12-12T04:28:18.810Z,2.70
2022-12-12T04:32:45.113Z,2.90
2022-12-12T04:36:47.998Z,3.00
2022-12-12T04:40:54.291Z,2.80
2022-12-12T04:45:01.736Z,2.50
2022-12-12T04:49:07.926Z,2.50
2022-12-12T04:53:18.534Z,2.60
2022-12-12T04:57:25.958Z,2.70
2022-12-12T05:01:49.565Z,2.90
2022-12-12T05:05:59.580Z,2.90
2022-12-12T05:10:01.694Z,2.90
2022-12-12T05:14:03.417Z,3.00
2022-12-12T05:18:08.760Z,2.80
2022-12-12T05:22:10.539Z,2.90
2022-12-12T05:26:23.992Z,2.80
2022-12-12T05:30:25.989Z,3.00
2022-12-12T05:34:27.711Z,3.10
2022-12-12T05:38:29.397Z,3.30
2022-12-12T05:42:31.339Z,3.40
2022-12-12T05:46:33.067Z,3.30
2022-12-12T05:50:34.746Z,3.40
2022-12-12T05:54:36.606Z,3.30
2022-12-12T05:58:41.348Z,3.40
2022-12-12T06:02:43.081Z,3.40
2022-12-12T06:06:44.835Z,3.30
2022-12-12T06:10:46.597Z,3.30
2022-12-12T06:14:48.230Z,3.30
2022-12-12T06:18:54.621Z,3.20
2022-12-12T06:22:56.463Z,3.30
2022-12-12T06:26:58.095Z,3.30
2022-12-12T06:30:59.822Z,3.40
2022-12-12T06:35:01.756Z,3.50
2022-12-12T06:39:03.746Z,3.20
2022-12-12T06:43:05.487Z,3.40
2022-12-12T06:47:07.128Z,3.20
2022-12-12T06:51:10.851Z,3.30
2022-12-12T06:55:12.719Z,3.40
2022-12-12T06:59:15.437Z,3.10
2022-12-12T07:03:17.444Z,3.20
2022-12-12T07:07:19.137Z,3.40
2022-12-12T07:11:24.224Z,3.40
2022-12-12T07:15:25.966Z,3.50
2022-12-12T07:19:27.648Z,3.50
2022-12-12T07:23:29.319Z,3.70
2022-12-12T07:27:30.953Z,3.50
2022-12-12T07:31:33.862Z,3.50
2022-12-12T07:35:36.082Z,3.50
2022-12-12T07:39:37.914Z,3.10
2022-12-12T07:43:43.864Z,3.40
2022-12-12T07:47:47.012Z,3.50
2022-12-12T07:51:49.408Z,3.10
2022-12-12T07:55:51.349Z,2.90
2022-12-12T07:59:53.000Z,2.90
2022-12-12T08:03:55.003Z,2.40
2022-12-12T08:07:56.753Z,2.40
2022-12-12T08:11:59.445Z,2.70
2022-12-12T08:16:01.293Z,2.80
2022-12-12T08:20:03.751Z,2.90
2022-12-12T08:24:05.718Z,3.00
2022-12-12T08:28:07.428Z,3.00
2022-12-12T08:32:09.090Z,2.90
2022-12-12T08:36:13.246Z,3.00
2022-12-12T08:40:14.962Z,3.10
2022-12-12T08:44:19.139Z,3.10
2022-12-12T08:48:20.774Z,2.90
2022-12-12T08:52:22.488Z,3.20
2022-12-12T08:56:24.407Z,3.20
2022-12-12T09:00:26.078Z,3.40
2022-12-12T09:04:27.796Z,3.20
2022-12-12T09:08:29.547Z,3.00
2022-12-12T09:12:34.504Z,3.00
2022-12-12T09:16:38.628Z,3.10
2022-12-12T09:20:40.292Z,2.70
2022-12-12T09:24:41.941Z,2.70
2022-12-12T09:28:43.592Z,3.00
2022-12-12T09:32:45.502Z,3.20
2022-12-12T09:36:47.165Z,3.60
2022-12-12T09:40:58.144Z,3.80
2022-12-12T09:45:04.290Z,3.80
2022-12-12T09:49:41.665Z,3.90
2022-12-12T09:53:46.860Z,3.80
2022-12-12T09:57:58.938Z,3.80
2022-12-12T10:02:40.086Z,4.00
2022-12-12T10:06:55.424Z,4.00
2022-12-12T10:11:07.027Z,4.20
2022-12-12T10:15:33.651Z,4.50
2022-12-12T10:19:53.215Z,4.50
2022-12-12T10:24:21.924Z,4.30
2022-12-12T10:28:25.960Z,4.30
2022-12-12T10:32:55.605Z,4.20
2022-12-12T10:37:21.832Z,4.20
2022-12-12T10:41:40.640Z,4.70
2022-12-12T10:46:03.371Z,5.10
2022-12-12T10:50:13.269Z,5.30
2022-12-12T10:54:39.598Z,5.40
2022-12-12T10:58:44.233Z,5.60
2022-12-12T11:02:46.041Z,5.90
2022-12-12T11:06:56.151Z,6.00
2022-12-12T11:11:28.007Z,6.20
2022-12-12T11:15:38.643Z,6.30
2022-12-12T11:19:40.343Z,5.50
2022-12-12T11:23:51.039Z,5.00
2022-12-12T11:27:54.003Z,4.80
2022-12-12T11:31:57.056Z,5.70
2022-12-12T11:36:01.714Z,5.50
2022-12-12T11:40:04.219Z,5.70
2022-12-12T11:44:05.916Z,5.80
2022-12-12T11:48:33.445Z,6.00
2022-12-12T11:52:35.176Z,6.30
2022-12-12T11:56:55.031Z,6.30
2022-12-12T12:01:05.466Z,6.30
2022-12-12T12:05:16.067Z,6.00
2022-12-12T12:09:38.719Z,5.50
2022-12-12T12:14:16.752Z,5.30
2022-12-12T12:18:55.686Z,5.00
2022-12-12T12:23:22.054Z,5.80
2022-12-12T12:27:32.703Z,5.60
2022-12-12T12:31:40.670Z,5.70
2022-12-12T12:36:20.945Z,5.10
2022-12-12T12:40:41.852Z,5.50
2022-12-12T12:45:18.513Z,5.90
2022-12-12T12:49:48.079Z,5.90
2022-12-12T12:54:19.264Z,5.90
2022-12-12T12:58:31.983Z,5.90
2022-12-12T13:02:55.418Z,6.10
2022-12-12T13:07:12.110Z,6.00
2022-12-12T13:11:45.098Z,5.30
2022-12-12T13:15:52.423Z,5.30
2022-12-12T13:19:56.865Z,5.60
2022-12-12T13:24:01.523Z,5.40
2022-12-12T13:28:10.885Z,5.80
2022-12-12T13:32:55.240Z,6.00
2022-12-12T13:36:58.445Z,5.70
2022-12-12T13:41:02.907Z,5.90
2022-12-12T13:45:36.429Z,5.80
2022-12-12T13:50:03.295Z,5.90
2022-12-12T13:54:13.242Z,5.80
2022-12-12T13:58:34.235Z,5.80
2022-12-12T14:02:39.842Z,6.00
2022-12-12T14:06:42.082Z,5.70
2022-12-12T14:10:49.721Z,5.60
2022-12-12T14:15:18.433Z,5.10
2022-12-12T14:19:38.796Z,4.70
2022-12-12T14:23:51.554Z,5.00
2022-12-12T14:27:53.948Z,5.00
2022-12-12T14:32:19.960Z,5.00
2022-12-12T14:36:42.514Z,4.90
2022-12-12T14:40:47.920Z,4.50
2022-12-12T14:44:51.028Z,4.20
2022-12-12T14:49:05.842Z,4.50
2022-12-12T14:53:21.006Z,4.80
2022-12-12T14:57:24.188Z,4.80
2022-12-12T15:01:34.939Z,4.90
2022-12-12T15:05:36.587Z,5.10
2022-12-12T15:09:40.451Z,4.90
2022-12-12T15:13:51.319Z,5.10
2022-12-12T15:17:54.090Z,5.30
2022-12-12T15:21:56.848Z,5.40
2022-12-12T15:25:58.652Z,5.40
2022-12-12T15:30:02.077Z,5.40
2022-12-12T15:34:03.758Z,5.20
2022-12-12T15:38:12.745Z,5.20
2022-12-12T15:42:15.307Z,5.10
2022-12-12T15:46:17.361Z,4.90
2022-12-12T15:50:43.706Z,4.90
2022-12-12T15:54:54.772Z,4.80
2022-12-12T15:59:16.986Z,4.70
2022-12-12T16:03:22.776Z,4.70
2022-12-12T16:07:24.667Z,4.70
2022-12-12T16:11:49.412Z,4.60
2022-12-12T16:15:51.241Z,4.60
2022-12-12T16:20:04.786Z,4.40
2022-12-12T16:24:12.462Z,4.30
2022-12-12T16:28:25.759Z,4.20
2022-12-12T16:32:27.710Z,4.20
2022-12-12T16:36:29.652Z,4.30
2022-12-12T16:40:31.285Z,4.30
2022-12-12T16:44:32.945Z,4.10
2022-12-12T16:48:35.735Z,4.30
2022-12-12T16:52:37.390Z,4.30
2022-12-12T16:56:39.094Z,4.00
2022-12-12T17:00:41.033Z,3.80
2022-12-12T17:04:42.757Z,3.70
2022-12-12T17:08:45.432Z,3.60
2022-12-12T17:12:47.413Z,3.50
2022-12-12T17:16:53.562Z,3.50
2022-12-12T17:20:55.331Z,3.40
2022-12-12T17:24:56.942Z,3.50
2022-12-12T17:28:58.686Z,3.30
2022-12-12T17:33:18.887Z,3.10
2022-12-12T17:37:20.600Z,3.00
2022-12-12T17:41:22.341Z,2.60
2022-12-12T17:45:24.073Z,2.60
2022-12-12T17:49:25.833Z,2.60
2022-12-12T17:53:32.175Z,2.50
2022-12-12T17:57:35.402Z,2.60
2022-12-12T18:01:37.152Z,2.30
2022-12-12T18:05:38.880Z,2.40
2022-12-12T18:09:40.736Z,2.40
2022-12-12T18:13:43.175Z,2.60
2022-12-12T18:17:44.875Z,2.40
2022-12-12T18:22:02.493Z,2.20
2022-12-12T18:26:17.238Z,2.10
2022-12-12T18:30:23.233Z,2.00
2022-12-12T18:34:25.299Z,2.30
2022-12-12T18:38:26.991Z,2.10
2022-12-12T18:42:28.726Z,1.70
2022-12-12T18:46:33.986Z,1.80
2022-12-12T18:50:37.607Z,2.00
2022-12-12T18:54:39.211Z,2.20
2022-12-12T18:58:40.935Z,2.20
2022-12-12T19:02:42.633Z,2.10
2022-12-12T19:06:44.508Z,2.00
2022-12-12T19:10:46.498Z,1.90
2022-12-12T19:19:12.002Z,1.60
2022-12-12T19:23:13.762Z,1.50
2022-12-12T19:27:15.441Z,1.50
2022-12-12T19:31:17.345Z,1.40
2022-12-12T19:35:19.185Z,1.70
2022-12-12T19:39:20.907Z,1.50
2022-12-12T19:43:22.620Z,1.20
2022-12-12T19:47:24.376Z,1.10
2022-12-12T19:51:29.005Z,1.20
2022-12-12T19:55:31.153Z,1.20
2022-12-12T19:59:32.796Z,1.20
2022-12-12T20:03:34.984Z,1.30
2022-12-12T20:07:36.651Z,1.20
2022-12-12T20:11:39.878Z,1.00
2022-12-12T20:15:41.602Z,1.00
2022-12-12T20:19:43.404Z,0.70
2022-12-12T20:23:47.185Z,0.90
2022-12-12T20:27:49.007Z,1.00
2022-12-12T20:31:51.166Z,1.00
2022-12-12T20:35:52.809Z,1.00
2022-12-12T20:39:54.466Z,1.10
2022-12-12T20:43:57.996Z,0.90
2022-12-12T20:48:02.973Z,0.60
2022-12-12T20:52:09.249Z,0.50
2022-12-12T20:56:14.606Z,0.50
2022-12-12T21:00:16.746Z,0.60
2022-12-12T21:04:18.746Z,0.60
2022-12-12T21:08:21.299Z,0.50
2022-12-12T21:12:23.040Z,0.60
2022-12-12T21:16:31.094Z,0.50
2022-12-12T21:20:32.843Z,0.40
2022-12-12T21:24:34.573Z,0.40
2022-12-12T21:28:36.487Z,0.70
2022-12-12T21:32:38.235Z,0.50
2022-12-12T21:36:39.889Z,0.40
2022-12-12T21:40:41.536Z,0.40
2022-12-12T21:44:45.789Z,0.50
2022-12-12T21:49:08.469Z,0.50
2022-12-12T21:53:28.733Z,0.30
2022-12-12T21:57:30.381Z,0.30
2022-12-12T22:01:32.758Z,0.40
2022-12-12T22:05:35.827Z,0.10
2022-12-12T22:09:40.967Z,0.00
2022-12-12T22:13:43.391Z,0.00
2022-12-12T22:17:45.142Z,0.00
2022-12-12T22:21:48.210Z,0.10
2022-12-12T22:25:49.895Z,0.20
2022-12-12T22:29:51.624Z,0.10
2022-12-12T22:33:59.528Z,-0.10
2022-12-12T22:38:01.201Z,-0.20
2022-12-12T22:42:02.840Z,0.00
2022-12-12T22:46:06.911Z,-0.10
2022-12-12T22:50:09.046Z,0.00
2022-12-12T22:54:10.930Z,0.10
2022-12-12T22:58:12.593Z,-0.20
2022-12-12T23:02:14.373Z,-0.20
2022-12-12T23:06:31.371Z,-0.30
2022-12-12T23:10:34.890Z,-0.20
2022-12-12T23:14:36.541Z,-0.20
2022-12-12T23:18:39.421Z,-0.30
2022-12-12T23:22:42.620Z,-0.30
2022-12-12T23:26:45.028Z,-0.30
2022-12-12T23:30:46.653Z,-0.50
2022-12-12T23:34:48.490Z,-0.50
2022-12-12T23:38:58.187Z,-0.60
2022-12-12T23:42:59.843Z,-0.50
2022-12-12T23:47:01.469Z,-0.40
2022-12-12T23:51:03.230Z,-0.40
2022-12-12T23:55:05.170Z,-0.50
2022-12-12T23:59:07.476Z,-0.60
